Time;durP1;ratioP1;P1;durP2;ratioP2;P2;SDS_P1;SDS_P2;PMS_P1;PMS_P2;Temp;Humidity;BMP_temperature;BMP_pressure;BME280_temperature;BME280_humidity;BME280_pressure;Samples;Min_cycle;Max_cycle;Signal;HPM_P1;HPM_P2
2022/12/15 00:39:16;;;;;;;25.95;17.15;;;;;;;-0.44;73.91;100771.16;1559137;92;21224;-77
2022/12/15 00:42:22;;;;;;;23.07;14.53;;;;;;;-0.32;73.93;100775.30;1559297;92;21241;-80
2022/12/15 00:46:53;;;;;;;21.37;13.05;;;;;;;-0.42;74.19;100776.84;1559100;92;21256;-77
2022/12/15 00:48:34;;;;;;;21.15;16.05;;;;;;;-0.49;74.54;100784.02;1559283;92;21232;-80
2022/12/15 01:22:04;;;;;;;23.35;16.90;;;;;;;-0.73;75.00;100725.94;1569078;91;21205;-79
2022/12/15 01:25:11;;;;;;;21.95;15.30;;;;;;;-0.71;75.24;100721.31;1559301;92;21244;-79
2022/12/15 01:28:16;;;;;;;20.43;12.05;;;;;;;-0.60;75.34;100729.59;1569034;91;21225;-81
2022/12/15 01:31:22;;;;;;;19.27;11.57;;;;;;;-0.55;75.10;100724.80;1559248;92;21252;-81
2022/12/15 01:34:27;;;;;;;20.02;11.95;;;;;;;-0.62;74.91;100729.67;1559288;92;21281;-81
2022/12/15 01:37:32;;;;;;;18.92;12.35;;;;;;;-0.72;75.23;100715.08;1559296;92;21209;-79
2022/12/15 01:40:48;;;;;;;19.57;11.65;;;;;;;-0.64;75.53;100725.37;1559188;92;21279;-78
2022/12/15 01:43:54;;;;;;;20.55;12.95;;;;;;;-0.60;75.35;100716.16;1569002;91;21197;-78
2022/12/15 01:47:00;;;;;;;18.32;11.50;;;;;;;-0.64;75.80;100718.17;1559113;92;21273;-78
2022/12/15 01:50:06;;;;;;;17.27;10.65;;;;;;;-0.69;76.13;100722.11;1568290;91;21221;-79
2022/12/15 01:53:10;;;;;;;16.07;10.38;;;;;;;-0.73;75.91;100721.91;1559132;92;21278;-81
2022/12/15 01:56:15;;;;;;;18.15;10.88;;;;;;;-0.67;75.84;100728.23;1559275;92;21225;-81
2022/12/15 01:59:29;;;;;;;17.32;10.60;;;;;;;-0.66;76.00;100725.48;1568764;91;21276;-78
2022/12/15 02:02:35;;;;;;;15.30;10.40;;;;;;;-0.54;75.43;100718.46;1559138;92;21257;-79
2022/12/15 02:05:42;;;;;;;15.35;9.95;;;;;;;-0.48;74.94;100710.01;1558029;92;21240;-81
2022/12/15 02:08:51;;;;;;;25.55;13.93;;;;;;;-0.54;74.98;100705.02;1568491;91;21838;-79
2022/12/15 02:12:25;;;;;;;23.50;13.00;;;;;;;-0.58;75.15;100696.28;1558964;92;21273;-78
2022/12/15 02:15:49;;;;;;;17.82;12.63;;;;;;;-0.54;74.85;100700.99;1557627;92;21256;-78
2022/12/15 02:19:34;;;;;;;27.62;19.50;;;;;;;-0.57;75.07;100699.83;1568499;91;21253;-79
2022/12/15 02:23:23;;;;;;;16.02;11.35;;;;;;;-0.44;74.53;100708.86;1559067;92;21209;-80
2022/12/15 02:27:00;;;;;;;18.07;12.78;;;;;;;-0.58;75.06;100712.89;1559202;92;21270;-80
2022/12/15 02:30:27;;;;;;;23.57;19.00;;;;;;;-0.48;75.01;100704.63;1558507;92;21261;-81
2022/12/15 02:33:33;;;;;;;17.57;11.75;;;;;;;-0.58;74.41;100695.42;1559025;92;21237;-81
2022/12/15 02:36:47;;;;;;;19.62;11.68;;;;;;;-0.51;74.19;100688.72;1568947;91;21763;-81
2022/12/15 02:39:52;;;;;;;27.20;21.65;;;;;;;-0.46;74.07;100691.98;1558637;92;21855;-81
2022/12/15 02:43:00;;;;;;;21.60;15.10;;;;;;;-0.40;73.76;100690.23;1559284;92;21727;-79
2022/12/15 02:46:13;;;;;;;25.12;18.60;;;;;;;-0.27;73.02;100681.78;1568989;91;21197;-80
2022/12/15 02:49:40;;;;;;;26.82;22.02;;;;;;;-0.16;72.71;100670.33;1558747;92;21240;-81
2022/12/15 02:53:22;;;;;;;27.73;18.90;;;;;;;-0.13;72.70;100666.11;1559105;92;21794;-79
2022/12/15 02:56:50;;;;;;;25.97;18.20;;;;;;;-0.35;73.21;100672.48;1559277;92;21266;-79
2022/12/15 03:00:08;;;;;;;21.55;13.55;;;;;;;-0.49;73.68;100672.00;1568988;91;21264;-81
2022/12/15 03:03:18;;;;;;;20.30;13.05;;;;;;;-0.57;74.12;100651.47;1569008;91;21826;-78
2022/12/15 03:06:20;;;;;;;18.77;14.55;;;;;;;-0.46;73.60;100646.30;1559048;91;21213;-79
2022/12/15 03:09:20;;;;;;;20.72;12.63;;;;;;;-0.56;73.75;100644.67;1559029;92;21241;-82
2022/12/15 03:12:26;;;;;;;15.72;10.85;;;;;;;-0.50;73.43;100641.20;1557910;92;21240;-77
2022/12/15 03:15:31;;;;;;;19.60;12.63;;;;;;;-0.63;73.65;100646.48;1558221;92;21249;-78
2022/12/15 03:18:38;;;;;;;18.73;12.47;;;;;;;-0.75;74.19;100645.91;1558767;92;21285;-78
2022/12/15 03:21:37;;;;;;;19.35;15.38;;;;;;;-0.74;74.46;100648.52;1568210;90;21247;-82
2022/12/15 03:24:42;;;;;;;21.42;15.72;;;;;;;-0.57;74.37;100652.33;1631534;86;21808;-80
2022/12/15 03:27:48;;;;;;;23.50;16.57;;;;;;;-0.47;73.81;100651.74;1628974;88;21832;-79
2022/12/15 03:30:55;;;;;;;20.97;13.48;;;;;;;-0.37;73.53;100648.39;1629016;88;21235;-80
2022/12/15 03:34:01;;;;;;;17.10;11.12;;;;;;;-0.39;73.58;100641.38;1631684;86;21215;-79
2022/12/15 03:37:08;;;;;;;17.80;12.68;;;;;;;-0.58;74.18;100637.17;1644547;86;21212;-82
2022/12/15 03:40:13;;;;;;;16.45;12.10;;;;;;;-0.46;74.03;100627.97;1648839;86;21217;-81
2022/12/15 03:43:18;;;;;;;17.98;12.30;;;;;;;-0.35;73.90;100622.27;1656988;86;21797;-81
2022/12/15 03:46:23;;;;;;;18.25;13.55;;;;;;;-0.54;74.19;100626.61;1656950;86;21730;-79
2022/12/15 03:49:22;;;;;;;19.60;13.35;;;;;;;-0.54;74.58;100629.78;1656958;86;21229;-79
2022/12/15 03:52:15;;;;;;;21.68;11.97;;;;;;;-0.49;74.62;100626.80;1657039;86;21180;-78
2022/12/15 03:55:01;;;;;;;23.18;16.12;;;;;;;-0.55;74.86;100626.72;1656970;86;21252;-79
2022/12/15 03:57:54;;;;;;;16.37;11.50;;;;;;;-0.62;75.37;100615.48;1656734;86;21212;-79
2022/12/15 04:00:59;;;;;;;20.60;12.63;;;;;;;-0.63;75.72;100615.11;1655810;86;21212;-80
2022/12/15 04:04:05;;;;;;;17.62;12.73;;;;;;;-0.46;75.51;100607.81;1656966;86;21766;-80
2022/12/15 04:07:09;;;;;;;22.75;13.45;;;;;;;-0.48;75.50;100612.40;1656991;86;21212;-80
2022/12/15 04:10:16;;;;;;;21.17;12.20;;;;;;;-0.47;75.80;100605.61;1657049;86;21833;-78
2022/12/15 04:13:23;;;;;;;21.75;13.80;;;;;;;-0.39;75.18;100600.57;1656995;86;21221;-78
2022/12/15 04:16:29;;;;;;;19.35;12.55;;;;;;;-0.50;75.97;100600.41;1656872;86;21801;-81
2022/12/15 04:22:58;;;;;;;19.67;12.18;;;;;;;-0.71;76.35;100620.09;1653691;86;21216;-81
2022/12/15 05:34:13;;;;;;;25.55;12.20;;;;;;;-0.25;76.20;100609.09;1655553;86;21792;-77
2022/12/15 05:37:18;;;;;;;20.30;13.03;;;;;;;-0.15;75.88;100618.76;1656796;86;21244;-77
2022/12/15 05:40:25;;;;;;;18.85;11.18;;;;;;;-0.12;75.70;100618.56;1647689;86;21259;-80
2022/12/15 05:43:25;;;;;;;23.18;13.60;;;;;;;-0.21;75.86;100612.44;1656789;86;21772;-81
2022/12/15 05:46:30;;;;;;;23.73;13.35;;;;;;;-0.23;76.27;100612.55;1655685;86;21224;-78
2022/12/15 05:49:37;;;;;;;22.55;14.35;;;;;;;-0.16;76.17;100607.63;1655324;86;21299;-82
2022/12/15 05:52:42;;;;;;;22.75;12.47;;;;;;;-0.04;75.90;100610.87;1655920;86;21267;-77
2022/12/15 05:55:47;;;;;;;24.43;11.48;;;;;;;-0.10;75.89;100609.91;1656933;86;21220;-78
2022/12/15 05:58:54;;;;;;;23.92;12.65;;;;;;;-0.14;76.28;100609.72;1656307;86;21203;-80
2022/12/15 06:02:00;;;;;;;23.38;13.88;;;;;;;-0.08;76.09;100617.41;1630232;88;21200;-80
2022/12/15 06:05:06;;;;;;;22.70;13.18;;;;;;;-0.09;76.19;100609.83;1630021;88;21232;-78
2022/12/15 06:08:12;;;;;;;23.47;12.93;;;;;;;-0.03;76.39;100608.55;1656941;86;21169;-77
2022/12/15 06:11:21;;;;;;;22.20;14.45;;;;;;;0.05;76.08;100602.19;1645321;86;21192;-77
2022/12/15 06:14:26;;;;;;;;;;;;;;;0.02;76.44;100607.76;1642283;86;21272;-80
2022/12/15 06:17:31;;;;;;;23.35;13.22;;;;;;;0.04;76.68;100612.54;1642080;86;20539;-80
2022/12/15 06:20:37;;;;;;;22.58;14.13;;;;;;;0.06;76.67;100622.73;1638478;86;21260;-78
2022/12/15 06:23:44;;;;;;;24.27;13.72;;;;;;;0.09;76.53;100617.62;1641235;85;21559;-78
2022/12/15 06:26:50;;;;;;;23.22;13.48;;;;;;;0.15;76.00;100623.47;1645769;87;21236;-80
2022/12/15 06:29:56;;;;;;;28.07;13.45;;;;;;;0.15;76.32;100611.85;1598365;88;21264;-78
2022/12/15 06:33:02;;;;;;;20.02;12.45;;;;;;;0.22;75.99;100618.53;1593125;88;21246;-78
2022/12/15 06:36:17;;;;;;;18.57;11.93;;;;;;;0.32;75.76;100620.97;1592545;88;21274;-77
2022/12/15 06:39:22;;;;;;;24.07;13.58;;;;;;;0.34;75.79;100606.09;1592754;88;21314;-78
2022/12/15 06:42:28;;;;;;;26.30;14.68;;;;;;;0.21;76.64;100609.59;1578741;88;21764;-78
2022/12/15 06:45:34;;;;;;;18.30;10.90;;;;;;;0.22;76.46;100601.91;1590913;88;21835;-77
2022/12/15 06:48:41;;;;;;;23.98;14.50;;;;;;;0.05;76.73;100594.13;1607514;88;21249;-78
2022/12/15 06:51:46;;;;;;;26.40;15.83;;;;;;;0.02;77.37;100589.42;1602018;87;21245;-77
2022/12/15 06:54:53;;;;;;;24.07;14.98;;;;;;;0.15;77.45;100588.50;1589625;88;21290;-78
2022/12/15 06:57:57;;;;;;;27.48;15.13;;;;;;;0.21;77.14;100575.11;1593836;88;21231;-78
2022/12/15 07:01:02;;;;;;;24.47;14.53;;;;;;;0.30;77.36;100570.94;1587251;90;21269;-77
2022/12/15 07:04:09;;;;;;;27.10;14.43;;;;;;;0.27;77.51;100567.10;1594604;88;21294;-77
2022/12/15 07:07:17;;;;;;;20.52;13.62;;;;;;;0.34;77.58;100565.24;1590259;88;21804;-80
2022/12/15 07:10:22;;;;;;;23.98;13.83;;;;;;;0.39;77.58;100555.02;1605637;87;21304;-80
2022/12/15 07:13:28;;;;;;;23.10;13.40;;;;;;;0.37;77.62;100548.01;1596817;88;21311;-82
2022/12/15 07:16:34;;;;;;;22.87;14.13;;;;;;;0.42;77.27;100542.68;1591621;88;21504;-81
2022/12/15 07:19:40;;;;;;;32.70;13.95;;;;;;;0.32;77.46;100535.36;1613719;88;21256;-81
2022/12/15 07:22:45;;;;;;;22.60;14.68;;;;;;;0.45;77.47;100536.23;1652422;85;21209;-81
2022/12/15 07:25:51;;;;;;;21.42;14.13;;;;;;;0.40;77.51;100532.52;1630470;85;21225;-81
2022/12/15 07:28:57;;;;;;;22.15;14.18;;;;;;;0.46;77.34;100528.53;1572391;89;22068;-81
2022/12/15 07:32:02;;;;;;;22.95;14.50;;;;;;;0.50;77.83;100526.88;1563164;91;21829;-81
2022/12/15 07:35:08;;;;;;;19.42;13.18;;;;;;;0.46;77.68;100527.19;1586286;90;21814;-81
2022/12/15 07:38:15;;;;;;;21.35;13.62;;;;;;;0.53;77.62;100523.12;1575820;89;21810;-81
2022/12/15 07:41:22;;;;;;;24.63;14.78;;;;;;;0.52;77.51;100514.67;1601552;89;21236;-79
2022/12/15 07:44:27;;;;;;;19.52;14.18;;;;;;;0.57;77.20;100504.44;1597222;88;21359;-79
2022/12/15 07:47:33;;;;;;;19.67;13.72;;;;;;;0.69;76.96;100491.44;1603913;88;21770;-79
2022/12/15 07:50:42;;;;;;;27.27;15.65;;;;;;;0.75;76.86;100477.56;1625926;87;21754;-81
2022/12/15 07:53:48;;;;;;;26.40;15.77;;;;;;;0.78;76.87;100464.84;1585284;90;21222;-78
2022/12/15 07:56:55;;;;;;;19.42;12.88;;;;;;;0.66;76.71;100463.87;1618750;87;21195;-78
2022/12/15 08:00:04;;;;;;;21.07;13.28;;;;;;;0.59;77.30;100459.42;1614168;87;21227;-78
2022/12/15 08:03:09;;;;;;;19.42;12.28;;;;;;;0.66;77.55;100450.41;1580064;89;21217;-80
2022/12/15 08:06:15;;;;;;;19.60;12.58;;;;;;;0.66;77.63;100443.67;1572321;89;21855;-81
2022/12/15 08:09:22;;;;;;;17.30;10.20;;;;;;;0.63;77.76;100431.31;1583563;89;21238;-81
2022/12/15 08:12:21;;;;;;;17.27;10.23;;;;;;;0.61;78.30;100431.92;1577813;89;21258;-81
2022/12/15 08:15:26;;;;;;;30.97;12.20;;;;;;;0.64;78.18;100431.69;1571641;89;21856;-81
2022/12/15 08:18:32;;;;;;;21.60;14.30;;;;;;;0.81;77.47;100444.44;1587423;89;21231;-81
2022/12/15 08:21:38;;;;;;;23.12;14.15;;;;;;;0.81;77.76;100455.20;1576536;89;21237;-80
2022/12/15 08:24:44;;;;;;;19.67;12.20;;;;;;;0.86;77.92;100467.85;1572552;89;21285;-78
2022/12/15 08:27:52;;;;;;;20.32;12.98;;;;;;;0.88;77.63;100467.23;1580874;88;21247;-79
2022/12/15 08:30:58;;;;;;;21.15;12.47;;;;;;;0.85;78.04;100452.64;1648941;86;21263;-81
2022/12/15 08:34:08;;;;;;;25.32;13.68;;;;;;;0.84;78.28;100443.70;1600694;88;21249;-81
2022/12/15 08:37:13;;;;;;;21.60;14.55;;;;;;;0.87;77.79;100421.95;1591244;88;21220;-81
2022/12/15 08:40:19;;;;;;;23.35;15.10;;;;;;;0.86;77.89;100404.56;1664382;85;21197;-79
2022/12/15 08:43:25;;;;;;;22.55;15.63;;;;;;;0.82;78.18;100399.87;1662425;85;21687;-80
2022/12/15 08:46:36;;;;;;;26.73;17.02;;;;;;;1.04;77.79;100390.23;1658876;85;21184;-80
2022/12/15 08:49:43;;;;;;;21.37;14.10;;;;;;;1.06;77.94;100407.99;1654519;85;21201;-81
2022/12/15 08:52:49;;;;;;;26.02;15.78;;;;;;;1.25;77.38;100398.91;1666654;85;21171;-79
2022/12/15 08:55:56;;;;;;;26.95;16.48;;;;;;;1.21;77.51;100394.72;1651560;85;21191;-79
2022/12/15 08:59:06;;;;;;;27.40;16.60;;;;;;;1.26;77.76;100376.86;1660801;85;21189;-78
2022/12/15 09:02:11;;;;;;;23.32;15.18;;;;;;;0.99;78.49;100375.77;1656629;85;21198;-78
2022/12/15 09:05:16;;;;;;;27.20;16.70;;;;;;;1.15;78.07;100373.63;1657733;85;21200;-79
2022/12/15 09:08:23;;;;;;;26.20;16.17;;;;;;;1.11;77.74;100369.44;1645944;85;21181;-79
2022/12/15 09:11:28;;;;;;;27.32;15.85;;;;;;;1.13;78.13;100361.23;1647260;85;21808;-79
2022/12/15 09:14:34;;;;;;;28.00;16.60;;;;;;;1.20;77.91;100343.16;1651078;85;21195;-79
2022/12/15 09:17:40;;;;;;;24.35;15.65;;;;;;;1.32;77.33;100328.37;1644585;85;21180;-79
2022/12/15 09:20:45;;;;;;;26.17;15.58;;;;;;;1.43;77.07;100329.78;1661820;85;21220;-79
2022/12/15 09:23:57;;;;;;;23.00;16.32;;;;;;;1.42;77.18;100330.27;1596647;88;21233;-79
2022/12/15 09:27:02;;;;;;;28.90;17.50;;;;;;;1.28;78.10;100316.50;1645391;85;21225;-79
2022/12/15 09:30:08;;;;;;;27.50;16.25;;;;;;;1.34;78.04;100319.70;1650871;86;21272;-79
2022/12/15 09:33:13;;;;;;;24.57;14.53;;;;;;;1.54;77.58;100302.84;1644998;85;21183;-78
2022/12/15 09:36:19;;;;;;;26.35;16.50;;;;;;;1.61;76.64;100307.29;1656904;85;21228;-79
2022/12/15 09:39:24;;;;;;;27.52;17.27;;;;;;;1.50;77.09;100295.97;1644348;85;21244;-78
2022/12/15 09:42:35;;;;;;;25.72;16.17;;;;;;;1.53;77.19;100279.56;1648083;85;21169;-81
2022/12/15 09:45:45;;;;;;;24.75;16.50;;;;;;;1.73;76.58;100276.16;1656567;85;21754;-81
2022/12/15 09:48:51;;;;;;;21.65;14.03;;;;;;;1.57;76.99;100265.36;1631135;86;21176;-81
2022/12/15 09:52:18;;;;;;;22.42;15.60;;;;;;;1.50;76.72;100265.82;1655541;86;22112;-80
2022/12/15 09:55:32;;;;;;;21.52;13.35;;;;;;;1.52;76.93;100254.94;1526647;91;21778;-80
2022/12/15 09:59:04;;;;;;;23.55;14.00;;;;;;;1.46;76.87;100229.33;1542887;91;21236;-80
2022/12/15 10:02:55;;;;;;;24.37;14.65;;;;;;;1.47;76.93;100228.83;1649767;85;21177;-81
2022/12/15 10:06:17;;;;;;;28.60;16.00;;;;;;;1.48;76.97;100213.02;1651395;85;21805;-78
2022/12/15 10:09:29;;;;;;;20.15;11.97;;;;;;;1.65;76.46;100213.91;1654732;85;21200;-79
2022/12/15 10:12:39;;;;;;;26.25;15.15;;;;;;;1.62;76.16;100220.02;1646545;85;21185;-80
2022/12/15 10:15:56;;;;;;;20.90;13.18;;;;;;;1.79;76.41;100211.46;1642726;85;21232;-79
2022/12/15 10:19:09;;;;;;;20.68;13.48;;;;;;;1.75;76.29;100197.36;1650092;85;21267;-78
2022/12/15 10:22:22;;;;;;;21.50;13.43;;;;;;;1.85;76.33;100193.43;1652289;85;21177;-80
2022/12/15 10:25:31;;;;;;;25.12;11.97;;;;;;;1.83;76.14;100199.91;1644717;85;21258;-80
2022/12/15 10:29:07;;;;;;;33.88;17.48;;;;;;;1.92;75.70;100189.73;1645838;85;21231;-80
2022/12/15 10:32:26;;;;;;;22.95;13.75;;;;;;;1.81;75.46;100183.02;1647255;85;21188;-79
2022/12/15 10:35:34;;;;;;;;;;;;;;;1.83;74.26;100184.58;1660631;86;21232;-78
2022/12/15 10:38:46;;;;;;;58.92;29.72;;;;;;;1.89;74.46;100178.72;1656184;85;20669;-80
2022/12/15 10:41:52;;;;;;;61.90;26.90;;;;;;;2.00;74.69;100172.45;1652592;85;21200;-80
2022/12/15 10:45:05;;;;;;;21.25;13.13;;;;;;;2.00;75.16;100163.00;1656417;85;21216;-80
2022/12/15 10:48:11;;;;;;;19.73;12.55;;;;;;;1.95;75.02;100170.61;1655467;85;21177;-80
2022/12/15 10:51:25;;;;;;;19.65;11.48;;;;;;;1.85;74.51;100180.44;1653951;85;21249;-79
2022/12/15 10:54:29;;;;;;;20.08;13.25;;;;;;;1.89;73.63;100169.28;1650895;85;21245;-79
2022/12/15 10:57:36;;;;;;;24.00;13.55;;;;;;;1.86;73.65;100183.50;1639291;85;21268;-80
2022/12/15 11:00:45;;;;;;;23.65;14.68;;;;;;;1.92;74.09;100184.34;1660486;85;21771;-79
2022/12/15 11:03:54;;;;;;;27.67;14.87;;;;;;;2.07;74.62;100179.07;1678184;85;21198;-81
2022/12/15 11:07:01;;;;;;;23.73;14.83;;;;;;;2.14;74.62;100189.71;1651154;86;21172;-79
2022/12/15 11:10:08;;;;;;;19.85;13.65;;;;;;;2.15;74.94;100203.56;1626484;86;21211;-79
2022/12/15 11:13:21;;;;;;;22.77;14.95;;;;;;;2.13;74.86;100202.84;1651665;85;21198;-80
2022/12/15 11:16:21;;;;;;;30.35;16.85;;;;;;;2.08;74.90;100205.06;1663749;85;21199;-79
2022/12/15 11:19:24;;;;;;;26.20;17.05;;;;;;;1.96;75.22;100184.46;1668321;85;21779;-81
2022/12/15 11:22:55;;;;;;;25.00;15.20;;;;;;;2.05;75.05;100187.77;1656611;86;21220;-79
2022/12/15 11:26:09;;;;;;;;;;;;;;;1.97;75.34;100187.52;1631602;85;21204;-79
2022/12/15 11:29:34;;;;;;;22.15;14.60;;;;;;;2.13;74.53;100179.05;1646600;85;20275;-79
2022/12/15 11:32:41;;;;;;;26.82;16.87;;;;;;;2.16;74.47;100164.80;1653895;85;21176;-80
2022/12/15 11:36:14;;;;;;;32.53;18.77;;;;;;;2.18;74.32;100153.89;1645112;85;21204;-81
2022/12/15 11:39:26;;;;;;;32.00;22.77;;;;;;;2.24;74.40;100183.06;1653020;85;21267;-79
2022/12/15 11:43:00;;;;;;;22.58;13.50;;;;;;;2.20;74.99;100221.59;1656490;85;21193;-79
2022/12/15 11:46:24;;;;;;;29.70;18.35;;;;;;;2.19;75.43;100214.48;1654314;85;21686;-80
2022/12/15 11:49:55;;;;;;;37.20;24.90;;;;;;;2.22;75.75;100183.20;1585930;90;21778;-79
2022/12/15 11:53:40;;;;;;;23.77;16.07;;;;;;;2.25;75.53;100157.29;1596102;89;21279;-78
2022/12/15 11:56:53;;;;;;;24.85;17.32;;;;;;;2.18;75.89;100188.48;1582760;88;21227;-78
2022/12/15 12:00:05;;;;;;;27.90;17.73;;;;;;;2.11;76.67;100175.11;1577013;90;21263;-79
2022/12/15 12:03:33;;;;;;;28.67;17.70;;;;;;;2.14;77.03;100176.72;1577605;88;21208;-79
2022/12/15 12:07:05;;;;;;;25.82;16.97;;;;;;;2.27;76.94;100172.88;1596660;89;21209;-81
2022/12/15 12:10:49;;;;;;;27.30;17.92;;;;;;;2.32;76.98;100190.55;1590471;88;21725;-80
2022/12/15 12:14:14;;;;;;;30.80;19.98;;;;;;;2.54;76.40;100197.20;1599618;88;21208;-81
2022/12/15 12:17:24;;;;;;;32.83;21.68;;;;;;;2.52;76.60;100199.19;1601022;88;21313;-78
2022/12/15 12:20:32;;;;;;;28.40;19.80;;;;;;;2.55;76.28;100198.95;1597894;88;21226;-80
2022/12/15 12:23:54;;;;;;;25.32;15.68;;;;;;;2.49;76.61;100211.13;1579324;90;21231;-79
2022/12/15 12:27:10;;;;;;;28.98;19.42;;;;;;;2.39;77.15;100222.78;1578332;88;21260;-79
2022/12/15 12:30:24;;;;;;;38.23;20.92;;;;;;;2.32;77.99;100225.63;1581270;89;21276;-81
2022/12/15 12:33:52;;;;;;;30.40;20.23;;;;;;;2.37;78.02;100211.27;1602326;89;21207;-79
2022/12/15 12:36:58;;;;;;;29.80;19.55;;;;;;;2.33;78.29;100198.50;1617188;87;21276;-80
2022/12/15 12:40:07;;;;;;;29.00;20.43;;;;;;;3.93;73.37;100208.19;1625878;88;21234;-81
2022/12/15 12:43:14;;;;;;;35.40;25.08;;;;;;;3.23;75.79;100190.88;1608507;88;21254;-81
2022/12/15 12:46:42;;;;;;;54.50;44.63;;;;;;;3.86;73.06;100184.04;1597061;87;21245;-81
2022/12/15 12:49:55;;;;;;;34.10;22.80;;;;;;;3.90;72.98;100177.83;1602924;89;21234;-79
2022/12/15 12:53:06;;;;;;;29.20;21.48;;;;;;;3.64;73.39;100174.75;1586965;88;21230;-79
2022/12/15 12:56:12;;;;;;;30.35;22.95;;;;;;;3.78;72.96;100168.47;1603133;87;21240;-81
2022/12/15 12:59:14;;;;;;;29.65;20.88;;;;;;;3.77;72.94;100169.47;1602913;88;21263;-78
2022/12/15 13:02:33;;;;;;;29.30;22.80;;;;;;;3.75;72.99;100167.38;1623260;88;21282;-79
2022/12/15 13:05:41;;;;;;;28.70;23.07;;;;;;;3.79;72.95;100163.91;1597274;88;21251;-79
2022/12/15 13:08:59;;;;;;;36.98;27.20;;;;;;;3.82;73.16;100160.45;1615204;87;21801;-81
2022/12/15 13:12:01;;;;;;;36.42;28.55;;;;;;;3.90;72.94;100161.09;1601592;88;21223;-81
2022/12/15 13:15:13;;;;;;;30.08;24.43;;;;;;;4.10;72.59;100166.09;1612573;88;22166;-80
2022/12/15 13:18:27;;;;;;;37.40;23.25;;;;;;;4.09;72.59;100160.30;1617994;88;21210;-81
2022/12/15 13:21:58;;;;;;;27.62;19.87;;;;;;;4.10;72.61;100157.98;1633122;88;21818;-81
2022/12/15 13:25:04;;;;;;;23.32;17.67;;;;;;;4.18;72.61;100173.50;1612925;87;21256;-81
2022/12/15 13:28:30;;;;;;;34.27;26.20;;;;;;;4.12;72.91;100168.16;1614235;88;21265;-81
2022/12/15 13:31:34;;;;;;;39.08;24.85;;;;;;;3.95;73.52;100147.16;1602893;88;21249;-80
2022/12/15 13:34:44;;;;;;;29.60;20.48;;;;;;;3.81;74.23;100137.09;1609611;87;21250;-81
2022/12/15 13:38:01;;;;;;;31.12;24.52;;;;;;;3.93;74.40;100128.86;1604583;88;21238;-80
2022/12/15 13:41:06;;;;;;;30.57;20.10;;;;;;;3.80;75.11;100131.80;1647211;85;21212;-79
2022/12/15 13:44:35;;;;;;;50.05;35.45;;;;;;;3.77;75.41;100123.98;1650125;85;21240;-80
2022/12/15 13:47:41;;;;;;;39.38;28.60;;;;;;;3.98;75.21;100119.83;1648686;85;21179;-78
2022/12/15 13:51:24;;;;;;;38.75;29.98;;;;;;;3.99;75.41;100114.77;1628508;88;21267;-79
2022/12/15 13:54:36;;;;;;;33.18;23.38;;;;;;;3.93;75.76;100127.50;1632335;86;21884;-81
2022/12/15 13:57:45;;;;;;;29.67;21.50;;;;;;;3.93;75.95;100142.39;1640086;86;21200;-81
2022/12/15 14:00:51;;;;;;;25.60;17.37;;;;;;;4.06;75.90;100160.59;1639191;85;21899;-80
2022/12/15 14:03:45;;;;;;;27.42;19.90;;;;;;;4.02;75.91;100149.69;1638977;85;21740;-79
2022/12/15 14:07:07;;;;;;;24.10;15.80;;;;;;;4.14;75.80;100166.19;1637683;85;21200;-78
2022/12/15 14:10:13;;;;;;;28.90;17.42;;;;;;;4.16;75.88;100180.42;1627415;85;21264;-79
2022/12/15 14:13:26;;;;;;;28.25;18.77;;;;;;;4.06;76.34;100179.04;1645648;86;21300;-78
2022/12/15 14:16:33;;;;;;;25.25;16.55;;;;;;;4.17;76.06;100179.42;1647644;85;21219;-78
2022/12/15 14:19:47;;;;;;;26.50;16.93;;;;;;;4.14;76.36;100182.42;1644989;86;21219;-80
2022/12/15 14:22:51;;;;;;;22.75;15.83;;;;;;;3.83;77.61;100177.03;1655983;86;21192;-79
2022/12/15 14:26:02;;;;;;;28.32;16.45;;;;;;;3.79;78.11;100186.91;1646449;86;21264;-80
2022/12/15 14:29:11;;;;;;;31.68;22.60;;;;;;;3.93;78.20;100181.62;1646079;85;21730;-79
2022/12/15 14:32:17;;;;;;;31.37;21.55;;;;;;;3.90;78.13;100176.48;1625223;87;21255;-79
2022/12/15 14:35:33;;;;;;;26.30;19.00;;;;;;;4.17;77.64;100171.80;1617760;88;21758;-78
2022/12/15 14:38:55;;;;;;;24.60;17.25;;;;;;;3.95;77.98;100178.27;1586968;90;21239;-80
2022/12/15 14:42:01;;;;;;;31.90;19.87;;;;;;;4.04;78.01;100180.16;1587162;90;21988;-79
2022/12/15 14:44:59;;;;;;;46.90;36.53;;;;;;;3.99;78.34;100164.33;1575936;89;21838;-78
2022/12/15 14:47:57;;;;;;;42.30;28.87;;;;;;;3.98;78.40;100152.30;1559263;91;21205;-80
2022/12/15 14:51:07;;;;;;;36.38;25.75;;;;;;;4.05;78.30;100157.03;1552896;92;21197;-79
2022/12/15 14:54:12;;;;;;;38.28;28.07;;;;;;;4.14;78.08;100168.89;1553216;92;21290;-80
2022/12/15 14:57:25;;;;;;;44.50;32.67;;;;;;;3.98;78.58;100161.27;1562867;92;21210;-79
2022/12/15 15:00:41;;;;;;;40.12;30.72;;;;;;;3.75;79.47;100168.73;1572245;91;21746;-79
2022/12/15 15:03:48;;;;;;;35.43;25.95;;;;;;;3.88;79.45;100176.63;1576144;91;21202;-80
2022/12/15 15:06:58;;;;;;;38.50;28.20;;;;;;;4.01;78.99;100174.55;1577129;90;21767;-78
2022/12/15 15:10:09;;;;;;;38.83;26.73;;;;;;;4.08;78.92;100174.83;1566193;90;21249;-80
2022/12/15 15:13:29;;;;;;;37.40;25.02;;;;;;;4.17;78.48;100178.06;1572629;90;21217;-81
2022/12/15 15:16:37;;;;;;;34.50;23.00;;;;;;;4.21;78.19;100184.92;1576148;90;21278;-79
2022/12/15 15:19:44;;;;;;;34.70;20.72;;;;;;;4.16;78.28;100184.98;1564056;90;21224;-78
2022/12/15 15:22:50;;;;;;;32.85;21.77;;;;;;;4.09;78.77;100192.31;1577004;90;21221;-80
2022/12/15 15:26:01;;;;;;;35.10;23.12;;;;;;;4.13;78.82;100190.66;1578261;91;21253;-79
2022/12/15 15:29:06;;;;;;;;;;;;;;;4.21;78.65;100194.39;1583229;89;21756;-78
2022/12/15 15:32:19;;;;;;;38.48;28.12;;;;;;;4.17;78.71;100194.31;1586901;90;20188;-80
2022/12/15 15:35:25;;;;;;;34.98;25.17;;;;;;;4.12;78.94;100195.22;1566494;89;21225;-80
2022/12/15 15:38:37;;;;;;;30.82;21.97;;;;;;;4.14;79.12;100195.96;1571829;90;21811;-79
2022/12/15 15:41:42;;;;;;;29.37;20.05;;;;;;;3.96;79.53;100190.34;1576429;89;21209;-79
2022/12/15 15:44:49;;;;;;;28.35;19.25;;;;;;;3.85;80.22;100195.33;1581451;89;21744;-80
2022/12/15 15:47:56;;;;;;;28.65;17.40;;;;;;;3.90;80.34;100200.33;1561529;90;21225;-78
2022/12/15 15:51:02;;;;;;;27.85;19.82;;;;;;;3.92;80.39;100193.45;1583038;90;21242;-78
2022/12/15 15:54:13;;;;;;;33.38;20.65;;;;;;;4.06;79.92;100202.55;1583552;90;21240;-79
2022/12/15 15:57:22;;;;;;;31.75;19.40;;;;;;;3.93;80.24;100202.78;1583452;90;21205;-79
2022/12/15 16:00:28;;;;;;;30.90;19.42;;;;;;;3.71;81.17;100197.55;1583161;90;21288;-78
2022/12/15 16:03:34;;;;;;;32.93;20.92;;;;;;;3.94;80.73;100196.36;1559127;92;21825;-78
2022/12/15 16:06:41;;;;;;;28.20;18.77;;;;;;;3.89;80.59;100187.80;1559088;92;21217;-80
2022/12/15 16:09:46;;;;;;;33.70;23.02;;;;;;;3.75;81.36;100191.73;1576849;90;21297;-80
2022/12/15 16:12:52;;;;;;;34.08;24.65;;;;;;;3.87;81.29;100188.95;1570086;90;21225;-80
2022/12/15 16:15:45;;;;;;;35.88;22.17;;;;;;;3.90;81.49;100188.66;1572966;89;21213;-78
2022/12/15 16:18:51;;;;;;;40.50;28.27;;;;;;;3.77;81.57;100184.36;1573909;89;21201;-81
2022/12/15 16:21:58;;;;;;;37.40;25.48;;;;;;;3.77;82.24;100195.17;1574819;90;21221;-81
2022/12/15 16:25:04;;;;;;;40.35;27.27;;;;;;;3.90;81.57;100185.95;1581499;89;21268;-81
2022/12/15 16:28:10;;;;;;;40.58;29.82;;;;;;;3.65;82.45;100188.12;1562734;89;21771;-77
2022/12/15 16:31:21;;;;;;;33.23;24.57;;;;;;;3.71;82.56;100186.22;1568439;91;21241;-78
2022/12/15 16:34:25;;;;;;;38.15;27.70;;;;;;;3.63;83.02;100187.42;1569560;89;21196;-77
2022/12/15 16:37:35;;;;;;;45.43;30.97;;;;;;;3.76;82.93;100185.81;1583706;90;21266;-82
2022/12/15 16:40:43;;;;;;;40.88;25.57;;;;;;;3.71;83.18;100189.43;1586926;89;21818;-77
2022/12/15 16:43:50;;;;;;;33.60;24.50;;;;;;;3.71;83.22;100183.52;1590337;90;21189;-82
2022/12/15 16:46:54;;;;;;;40.80;28.15;;;;;;;3.56;84.06;100179.47;1558964;91;21818;-80
2022/12/15 16:50:00;;;;;;;44.30;29.52;;;;;;;3.75;83.50;100175.50;1557961;91;21794;-82
2022/12/15 16:53:06;;;;;;;37.03;26.90;;;;;;;3.60;83.96;100172.80;1559173;92;21217;-82